sensor_id;sensor_type;location;lat;lon;timestamp;P1;durP1;ratioP1;P2;durP2;ratioP2
41229;SDS011;26964;50.428;19.218;2022-10-17T00:01:57;39.5;;;27.5;;
41229;SDS011;26964;50.428;19.218;2022-10-17T00:06:57;41.9;;;28.2;;
41229;SDS011;26964;50.428;19.218;2022-10-17T00:11:57;39.7;;;27.9;;
41229;SDS011;26964;50.428;19.218;2022-10-17T00:16:57;38.3;;;26.3;;
41229;SDS011;26964;50.428;19.218;2022-10-17T00:21:57;43.2;;;27.4;;
41229;SDS011;26964;50.428;19.218;2022-10-17T00:26:57;43.0;;;27.1;;
41229;SDS011;26964;50.428;19.218;2022-10-17T00:31:57;37.5;;;25.8;;
41229;SDS011;26964;50.428;19.218;2022-10-17T00:36:57;40.7;;;26.9;;
41229;SDS011;26964;50.428;19.218;2022-10-17T00:41:57;37.5;;;26.3;;
41229;SDS011;26964;50.428;19.218;2022-10-17T00:46:58;38.2;;;26.5;;
41229;SDS011;26964;50.428;19.218;2022-10-17T00:51:58;42.0;;;28.0;;
41229;SDS011;26964;50.428;19.218;2022-10-17T00:56:58;38.2;;;26.9;;
41229;SDS011;26964;50.428;19.218;2022-10-17T01:01:59;39.5;;;27.3;;
41229;SDS011;26964;50.428;19.218;2022-10-17T01:06:59;39.3;;;27.3;;
41229;SDS011;26964;50.428;19.218;2022-10-17T01:11:58;41.7;;;27.5;;
41229;SDS011;26964;50.428;19.218;2022-10-17T01:16:58;42.0;;;28.1;;
41229;SDS011;26964;50.428;19.218;2022-10-17T01:21:58;39.6;;;25.7;;
41229;SDS011;26964;50.428;19.218;2022-10-17T01:27:03;40.5;;;27.6;;
41229;SDS011;26964;50.428;19.218;2022-10-17T01:31:58;44.8;;;30.2;;
41229;SDS011;26964;50.428;19.218;2022-10-17T01:36:58;44.0;;;29.7;;
41229;SDS011;26964;50.428;19.218;2022-10-17T01:41:58;37.7;;;26.7;;
41229;SDS011;26964;50.428;19.218;2022-10-17T01:46:58;35.6;;;24.7;;
41229;SDS011;26964;50.428;19.218;2022-10-17T01:51:59;41.0;;;26.8;;
41229;SDS011;26964;50.428;19.218;2022-10-17T01:56:58;39.0;;;27.2;;
41229;SDS011;26964;50.428;19.218;2022-10-17T02:01:57;42.3;;;30.3;;
41229;SDS011;26964;50.428;19.218;2022-10-17T02:16:59;45.7;;;29.1;;
41229;SDS011;26964;50.428;19.218;2022-10-17T02:22:01;44.0;;;28.7;;
41229;SDS011;26964;50.428;19.218;2022-10-17T02:26:59;41.0;;;27.5;;
41229;SDS011;26964;50.428;19.218;2022-10-17T02:31:57;37.8;;;26.3;;
41229;SDS011;26964;50.428;19.218;2022-10-17T02:36:58;44.5;;;30.7;;
41229;SDS011;26964;50.428;19.218;2022-10-17T02:41:57;42.3;;;28.6;;
41229;SDS011;26964;50.428;19.218;2022-10-17T02:46:59;43.8;;;29.4;;
41229;SDS011;26964;50.428;19.218;2022-10-17T02:51:59;49.3;;;30.7;;
41229;SDS011;26964;50.428;19.218;2022-10-17T02:56:58;45.1;;;31.6;;
41229;SDS011;26964;50.428;19.218;2022-10-17T03:01:57;44.4;;;30.5;;
41229;SDS011;26964;50.428;19.218;2022-10-17T03:06:57;43.8;;;29.8;;
41229;SDS011;26964;50.428;19.218;2022-10-17T03:11:57;38.3;;;27.3;;
41229;SDS011;26964;50.428;19.218;2022-10-17T03:16:57;42.1;;;27.5;;
41229;SDS011;26964;50.428;19.218;2022-10-17T03:21:57;43.5;;;28.1;;
41229;SDS011;26964;50.428;19.218;2022-10-17T03:26:57;37.0;;;26.8;;
41229;SDS011;26964;50.428;19.218;2022-10-17T03:31:57;38.4;;;27.2;;
41229;SDS011;26964;50.428;19.218;2022-10-17T03:36:57;43.8;;;27.0;;
41229;SDS011;26964;50.428;19.218;2022-10-17T03:41:57;41.8;;;27.1;;
41229;SDS011;26964;50.428;19.218;2022-10-17T03:46:57;38.0;;;26.0;;
41229;SDS011;26964;50.428;19.218;2022-10-17T03:51:57;39.5;;;27.3;;
41229;SDS011;26964;50.428;19.218;2022-10-17T03:56:57;43.0;;;28.3;;
41229;SDS011;26964;50.428;19.218;2022-10-17T04:01:57;40.9;;;29.1;;
41229;SDS011;26964;50.428;19.218;2022-10-17T04:06:57;42.3;;;28.8;;
41229;SDS011;26964;50.428;19.218;2022-10-17T04:11:57;46.2;;;30.1;;
41229;SDS011;26964;50.428;19.218;2022-10-17T04:16:57;46.0;;;30.7;;
41229;SDS011;26964;50.428;19.218;2022-10-17T04:21:57;42.4;;;28.4;;
41229;SDS011;26964;50.428;19.218;2022-10-17T04:26:57;44.4;;;29.9;;
41229;SDS011;26964;50.428;19.218;2022-10-17T04:31:57;48.2;;;33.3;;
41229;SDS011;26964;50.428;19.218;2022-10-17T04:36:57;49.2;;;32.1;;
41229;SDS011;26964;50.428;19.218;2022-10-17T04:41:57;45.5;;;30.8;;
41229;SDS011;26964;50.428;19.218;2022-10-17T04:46:57;48.4;;;30.7;;
41229;SDS011;26964;50.428;19.218;2022-10-17T04:51:57;44.3;;;30.3;;
41229;SDS011;26964;50.428;19.218;2022-10-17T04:56:57;43.3;;;29.0;;
41229;SDS011;26964;50.428;19.218;2022-10-17T05:01:57;44.0;;;29.5;;
41229;SDS011;26964;50.428;19.218;2022-10-17T05:06:57;49.0;;;30.9;;
41229;SDS011;26964;50.428;19.218;2022-10-17T05:11:57;50.6;;;34.2;;
41229;SDS011;26964;50.428;19.218;2022-10-17T05:16:57;50.2;;;33.0;;
41229;SDS011;26964;50.428;19.218;2022-10-17T05:21:57;51.0;;;32.5;;
41229;SDS011;26964;50.428;19.218;2022-10-17T05:26:57;46.0;;;31.1;;
41229;SDS011;26964;50.428;19.218;2022-10-17T05:31:57;49.6;;;32.6;;
41229;SDS011;26964;50.428;19.218;2022-10-17T05:36:57;48.5;;;31.2;;
41229;SDS011;26964;50.428;19.218;2022-10-17T05:41:57;52.0;;;32.3;;
41229;SDS011;26964;50.428;19.218;2022-10-17T05:46:57;51.0;;;32.5;;
41229;SDS011;26964;50.428;19.218;2022-10-17T05:51:57;55.3;;;32.0;;
41229;SDS011;26964;50.428;19.218;2022-10-17T05:56:57;45.3;;;30.7;;
41229;SDS011;26964;50.428;19.218;2022-10-17T06:01:57;45.9;;;29.0;;
41229;SDS011;26964;50.428;19.218;2022-10-17T06:06:57;43.9;;;29.7;;
41229;SDS011;26964;50.428;19.218;2022-10-17T06:11:57;45.3;;;29.6;;
41229;SDS011;26964;50.428;19.218;2022-10-17T06:16:57;44.7;;;31.4;;
41229;SDS011;26964;50.428;19.218;2022-10-17T06:21:57;50.1;;;33.9;;
41229;SDS011;26964;50.428;19.218;2022-10-17T06:26:57;47.9;;;32.4;;
41229;SDS011;26964;50.428;19.218;2022-10-17T06:31:57;48.7;;;31.2;;
41229;SDS011;26964;50.428;19.218;2022-10-17T06:36:57;39.3;;;28.9;;
41229;SDS011;26964;50.428;19.218;2022-10-17T06:41:57;41.8;;;28.7;;
41229;SDS011;26964;50.428;19.218;2022-10-17T06:46:57;40.6;;;27.2;;
41229;SDS011;26964;50.428;19.218;2022-10-17T06:51:57;41.7;;;27.8;;
41229;SDS011;26964;50.428;19.218;2022-10-17T06:56:57;37.7;;;26.9;;
41229;SDS011;26964;50.428;19.218;2022-10-17T07:01:56;43.7;;;28.3;;
41229;SDS011;26964;50.428;19.218;2022-10-17T07:06:56;43.5;;;29.7;;
41229;SDS011;26964;50.428;19.218;2022-10-17T07:11:57;40.0;;;28.2;;
41229;SDS011;26964;50.428;19.218;2022-10-17T07:16:57;39.9;;;28.4;;
41229;SDS011;26964;50.428;19.218;2022-10-17T07:21:57;40.9;;;28.8;;
41229;SDS011;26964;50.428;19.218;2022-10-17T07:26:57;42.8;;;28.5;;
41229;SDS011;26964;50.428;19.218;2022-10-17T07:31:57;38.9;;;28.1;;
41229;SDS011;26964;50.428;19.218;2022-10-17T07:37:02;40.0;;;27.9;;
41229;SDS011;26964;50.428;19.218;2022-10-17T07:41:57;40.2;;;26.2;;
41229;SDS011;26964;50.428;19.218;2022-10-17T07:46:57;37.7;;;25.1;;
41229;SDS011;26964;50.428;19.218;2022-10-17T07:51:56;35.7;;;25.4;;
41229;SDS011;26964;50.428;19.218;2022-10-17T07:56:56;38.1;;;24.8;;
41229;SDS011;26964;50.428;19.218;2022-10-17T08:01:56;33.4;;;23.6;;
41229;SDS011;26964;50.428;19.218;2022-10-17T08:06:56;32.1;;;22.6;;
41229;SDS011;26964;50.428;19.218;2022-10-17T08:11:56;32.3;;;21.2;;
41229;SDS011;26964;50.428;19.218;2022-10-17T08:16:56;29.6;;;21.5;;
41229;SDS011;26964;50.428;19.218;2022-10-17T08:21:56;33.1;;;22.6;;
41229;SDS011;26964;50.428;19.218;2022-10-17T08:26:57;28.7;;;20.0;;
41229;SDS011;26964;50.428;19.218;2022-10-17T08:31:57;25.8;;;18.4;;
41229;SDS011;26964;50.428;19.218;2022-10-17T08:36:56;32.4;;;18.7;;
41229;SDS011;26964;50.428;19.218;2022-10-17T08:46:57;24.8;;;18.7;;
41229;SDS011;26964;50.428;19.218;2022-10-17T08:51:57;26.0;;;19.3;;
41229;SDS011;26964;50.428;19.218;2022-10-17T08:56:57;29.0;;;18.4;;
41229;SDS011;26964;50.428;19.218;2022-10-17T09:01:58;26.8;;;19.0;;
41229;SDS011;26964;50.428;19.218;2022-10-17T09:06:58;29.1;;;17.9;;
41229;SDS011;26964;50.428;19.218;2022-10-17T09:17:00;24.4;;;16.7;;
41229;SDS011;26964;50.428;19.218;2022-10-17T09:21:57;29.8;;;17.0;;
41229;SDS011;26964;50.428;19.218;2022-10-17T09:26:56;22.2;;;15.2;;
41229;SDS011;26964;50.428;19.218;2022-10-17T09:31:59;22.4;;;14.3;;
41229;SDS011;26964;50.428;19.218;2022-10-17T09:36:56;20.6;;;13.0;;
41229;SDS011;26964;50.428;19.218;2022-10-17T09:41:57;20.3;;;13.3;;
41229;SDS011;26964;50.428;19.218;2022-10-17T09:51:57;20.4;;;12.1;;
41229;SDS011;26964;50.428;19.218;2022-10-17T09:56:57;18.1;;;12.6;;
41229;SDS011;26964;50.428;19.218;2022-10-17T10:11:57;20.7;;;14.3;;
41229;SDS011;26964;50.428;19.218;2022-10-17T10:16:56;17.7;;;11.6;;
41229;SDS011;26964;50.428;19.218;2022-10-17T10:21:58;18.6;;;12.2;;
41229;SDS011;26964;50.428;19.218;2022-10-17T10:26:57;16.1;;;11.1;;
41229;SDS011;26964;50.428;19.218;2022-10-17T10:31:58;15.0;;;10.3;;
41229;SDS011;26964;50.428;19.218;2022-10-17T10:36:58;16.1;;;11.4;;
41229;SDS011;26964;50.428;19.218;2022-10-17T10:41:57;18.9;;;11.4;;
41229;SDS011;26964;50.428;19.218;2022-10-17T10:51:57;14.6;;;9.5;;
41229;SDS011;26964;50.428;19.218;2022-10-17T10:56:57;15.8;;;10.8;;
41229;SDS011;26964;50.428;19.218;2022-10-17T11:01:59;13.2;;;9.7;;
41229;SDS011;26964;50.428;19.218;2022-10-17T11:06:59;16.9;;;9.1;;
41229;SDS011;26964;50.428;19.218;2022-10-17T11:11:57;15.9;;;8.6;;
41229;SDS011;26964;50.428;19.218;2022-10-17T11:16:58;15.4;;;8.4;;
41229;SDS011;26964;50.428;19.218;2022-10-17T11:26:57;12.9;;;7.9;;
41229;SDS011;26964;50.428;19.218;2022-10-17T11:31:57;12.8;;;8.3;;
41229;SDS011;26964;50.428;19.218;2022-10-17T11:36:57;12.8;;;7.9;;
41229;SDS011;26964;50.428;19.218;2022-10-17T11:41:57;13.7;;;7.5;;
41229;SDS011;26964;50.428;19.218;2022-10-17T11:46:57;14.0;;;7.7;;
41229;SDS011;26964;50.428;19.218;2022-10-17T11:51:59;12.6;;;8.0;;
41229;SDS011;26964;50.428;19.218;2022-10-17T11:57:01;14.1;;;8.7;;
41229;SDS011;26964;50.428;19.218;2022-10-17T12:01:57;12.5;;;7.8;;
41229;SDS011;26964;50.428;19.218;2022-10-17T12:07:00;17.6;;;9.0;;
41229;SDS011;26964;50.428;19.218;2022-10-17T12:11:57;10.8;;;7.8;;
41229;SDS011;26964;50.428;19.218;2022-10-17T12:16:56;15.2;;;8.4;;
41229;SDS011;26964;50.428;19.218;2022-10-17T12:21:57;11.4;;;7.7;;
41229;SDS011;26964;50.428;19.218;2022-10-17T12:26:56;13.2;;;8.7;;
41229;SDS011;26964;50.428;19.218;2022-10-17T12:36:56;13.7;;;8.3;;
41229;SDS011;26964;50.428;19.218;2022-10-17T12:41:56;13.7;;;8.0;;
41229;SDS011;26964;50.428;19.218;2022-10-17T12:46:56;13.3;;;8.0;;
41229;SDS011;26964;50.428;19.218;2022-10-17T12:56:56;14.3;;;9.3;;
41229;SDS011;26964;50.428;19.218;2022-10-17T13:01:57;12.3;;;8.5;;
41229;SDS011;26964;50.428;19.218;2022-10-17T13:06:57;13.7;;;8.6;;
41229;SDS011;26964;50.428;19.218;2022-10-17T13:11:58;17.5;;;8.4;;
41229;SDS011;26964;50.428;19.218;2022-10-17T13:16:57;14.8;;;8.7;;
41229;SDS011;26964;50.428;19.218;2022-10-17T13:21:57;13.7;;;8.3;;
41229;SDS011;26964;50.428;19.218;2022-10-17T13:26:56;12.6;;;7.6;;
41229;SDS011;26964;50.428;19.218;2022-10-17T13:31:57;14.1;;;8.3;;
41229;SDS011;26964;50.428;19.218;2022-10-17T13:36:56;11.7;;;8.7;;
41229;SDS011;26964;50.428;19.218;2022-10-17T13:41:56;13.0;;;8.3;;
41229;SDS011;26964;50.428;19.218;2022-10-17T13:46:56;11.2;;;7.7;;
41229;SDS011;26964;50.428;19.218;2022-10-17T13:51:56;14.7;;;7.8;;
41229;SDS011;26964;50.428;19.218;2022-10-17T13:56:56;10.7;;;8.0;;
41229;SDS011;26964;50.428;19.218;2022-10-17T14:01:56;12.5;;;7.3;;
41229;SDS011;26964;50.428;19.218;2022-10-17T14:06:56;11.3;;;7.2;;
41229;SDS011;26964;50.428;19.218;2022-10-17T14:11:57;12.3;;;7.7;;
41229;SDS011;26964;50.428;19.218;2022-10-17T14:16:56;10.6;;;6.9;;
41229;SDS011;26964;50.428;19.218;2022-10-17T14:26:57;11.2;;;7.1;;
41229;SDS011;26964;50.428;19.218;2022-10-17T14:31:57;11.5;;;6.3;;
41229;SDS011;26964;50.428;19.218;2022-10-17T14:36:56;13.2;;;6.7;;
41229;SDS011;26964;50.428;19.218;2022-10-17T14:41:56;13.1;;;7.2;;
41229;SDS011;26964;50.428;19.218;2022-10-17T14:46:57;11.1;;;7.0;;
41229;SDS011;26964;50.428;19.218;2022-10-17T14:56:56;10.5;;;6.8;;
41229;SDS011;26964;50.428;19.218;2022-10-17T15:01:56;10.6;;;6.4;;
41229;SDS011;26964;50.428;19.218;2022-10-17T15:06:56;9.9;;;6.4;;
41229;SDS011;26964;50.428;19.218;2022-10-17T15:11:57;13.0;;;7.1;;
41229;SDS011;26964;50.428;19.218;2022-10-17T15:16:56;13.0;;;7.6;;
41229;SDS011;26964;50.428;19.218;2022-10-17T15:21:56;11.3;;;7.0;;
41229;SDS011;26964;50.428;19.218;2022-10-17T15:26:56;10.3;;;6.6;;
41229;SDS011;26964;50.428;19.218;2022-10-17T15:31:56;11.4;;;6.1;;
41229;SDS011;26964;50.428;19.218;2022-10-17T15:36:56;20.4;;;12.2;;
41229;SDS011;26964;50.428;19.218;2022-10-17T15:41:56;22.3;;;13.4;;
41229;SDS011;26964;50.428;19.218;2022-10-17T15:46:56;20.2;;;12.9;;
41229;SDS011;26964;50.428;19.218;2022-10-17T15:51:56;27.0;;;16.7;;
41229;SDS011;26964;50.428;19.218;2022-10-17T15:56:56;26.8;;;15.7;;
41229;SDS011;26964;50.428;19.218;2022-10-17T16:01:56;34.5;;;17.9;;
41229;SDS011;26964;50.428;19.218;2022-10-17T16:06:56;35.4;;;20.4;;
41229;SDS011;26964;50.428;19.218;2022-10-17T16:11:56;46.5;;;25.7;;
41229;SDS011;26964;50.428;19.218;2022-10-17T16:16:56;39.1;;;22.1;;
41229;SDS011;26964;50.428;19.218;2022-10-17T16:21:56;50.5;;;26.1;;
41229;SDS011;26964;50.428;19.218;2022-10-17T16:26:56;53.1;;;28.9;;
41229;SDS011;26964;50.428;19.218;2022-10-17T16:31:56;55.0;;;31.3;;
41229;SDS011;26964;50.428;19.218;2022-10-17T16:36:56;60.1;;;31.8;;
41229;SDS011;26964;50.428;19.218;2022-10-17T16:41:56;56.1;;;30.8;;
41229;SDS011;26964;50.428;19.218;2022-10-17T16:46:56;58.6;;;31.8;;
41229;SDS011;26964;50.428;19.218;2022-10-17T16:51:56;68.8;;;34.8;;
41229;SDS011;26964;50.428;19.218;2022-10-17T16:56:56;51.1;;;29.2;;
41229;SDS011;26964;50.428;19.218;2022-10-17T17:01:56;56.3;;;28.7;;
41229;SDS011;26964;50.428;19.218;2022-10-17T17:06:56;47.3;;;25.9;;
41229;SDS011;26964;50.428;19.218;2022-10-17T17:11:56;42.8;;;23.0;;
41229;SDS011;26964;50.428;19.218;2022-10-17T17:16:56;32.3;;;18.2;;
41229;SDS011;26964;50.428;19.218;2022-10-17T17:21:56;40.7;;;20.0;;
41229;SDS011;26964;50.428;19.218;2022-10-17T17:26:56;31.5;;;16.0;;
41229;SDS011;26964;50.428;19.218;2022-10-17T17:31:56;34.7;;;17.7;;
41229;SDS011;26964;50.428;19.218;2022-10-17T17:36:56;36.8;;;19.2;;
41229;SDS011;26964;50.428;19.218;2022-10-17T17:41:56;30.5;;;18.9;;
41229;SDS011;26964;50.428;19.218;2022-10-17T17:46:56;29.1;;;16.9;;
41229;SDS011;26964;50.428;19.218;2022-10-17T17:51:56;26.8;;;15.9;;
41229;SDS011;26964;50.428;19.218;2022-10-17T17:56:56;23.6;;;14.5;;
41229;SDS011;26964;50.428;19.218;2022-10-17T18:01:55;26.9;;;14.8;;
41229;SDS011;26964;50.428;19.218;2022-10-17T18:06:55;25.9;;;14.7;;
41229;SDS011;26964;50.428;19.218;2022-10-17T18:11:56;32.1;;;18.4;;
41229;SDS011;26964;50.428;19.218;2022-10-17T18:16:55;39.7;;;21.2;;
41229;SDS011;26964;50.428;19.218;2022-10-17T18:21:55;45.1;;;24.4;;
41229;SDS011;26964;50.428;19.218;2022-10-17T18:26:56;45.1;;;28.7;;
41229;SDS011;26964;50.428;19.218;2022-10-17T18:31:56;45.4;;;26.3;;
41229;SDS011;26964;50.428;19.218;2022-10-17T18:36:56;41.8;;;25.5;;
41229;SDS011;26964;50.428;19.218;2022-10-17T18:41:58;42.1;;;24.4;;
41229;SDS011;26964;50.428;19.218;2022-10-17T18:46:56;33.6;;;20.5;;
41229;SDS011;26964;50.428;19.218;2022-10-17T18:51:56;34.1;;;20.9;;
41229;SDS011;26964;50.428;19.218;2022-10-17T18:57:05;32.0;;;19.6;;
41229;SDS011;26964;50.428;19.218;2022-10-17T19:06:56;32.0;;;18.5;;
41229;SDS011;26964;50.428;19.218;2022-10-17T19:11:56;30.7;;;18.7;;
41229;SDS011;26964;50.428;19.218;2022-10-17T19:16:56;34.1;;;19.1;;
41229;SDS011;26964;50.428;19.218;2022-10-17T19:21:56;28.1;;;18.3;;
41229;SDS011;26964;50.428;19.218;2022-10-17T19:26:56;26.4;;;16.3;;
41229;SDS011;26964;50.428;19.218;2022-10-17T19:31:56;25.4;;;15.7;;
41229;SDS011;26964;50.428;19.218;2022-10-17T19:36:56;25.9;;;15.3;;
41229;SDS011;26964;50.428;19.218;2022-10-17T19:41:56;27.5;;;16.6;;
41229;SDS011;26964;50.428;19.218;2022-10-17T19:46:55;29.8;;;15.5;;
41229;SDS011;26964;50.428;19.218;2022-10-17T19:51:56;27.8;;;17.6;;
41229;SDS011;26964;50.428;19.218;2022-10-17T19:56:56;23.1;;;14.9;;
41229;SDS011;26964;50.428;19.218;2022-10-17T20:01:55;22.0;;;14.8;;
41229;SDS011;26964;50.428;19.218;2022-10-17T20:06:55;26.9;;;14.4;;
41229;SDS011;26964;50.428;19.218;2022-10-17T20:11:56;25.4;;;14.1;;
41229;SDS011;26964;50.428;19.218;2022-10-17T20:16:55;27.2;;;13.9;;
41229;SDS011;26964;50.428;19.218;2022-10-17T20:21:56;28.9;;;20.2;;
41229;SDS011;26964;50.428;19.218;2022-10-17T20:26:55;26.6;;;18.0;;
41229;SDS011;26964;50.428;19.218;2022-10-17T20:31:55;27.8;;;16.7;;
41229;SDS011;26964;50.428;19.218;2022-10-17T20:36:55;23.8;;;16.1;;
41229;SDS011;26964;50.428;19.218;2022-10-17T20:41:55;29.6;;;17.6;;
41229;SDS011;26964;50.428;19.218;2022-10-17T20:46:55;31.4;;;19.2;;
41229;SDS011;26964;50.428;19.218;2022-10-17T20:51:56;31.5;;;19.1;;
41229;SDS011;26964;50.428;19.218;2022-10-17T20:56:55;32.2;;;19.5;;
41229;SDS011;26964;50.428;19.218;2022-10-17T21:01:55;32.8;;;19.5;;
41229;SDS011;26964;50.428;19.218;2022-10-17T21:06:55;36.1;;;18.9;;
41229;SDS011;26964;50.428;19.218;2022-10-17T21:11:55;33.6;;;20.8;;
41229;SDS011;26964;50.428;19.218;2022-10-17T21:16:55;35.7;;;20.6;;
41229;SDS011;26964;50.428;19.218;2022-10-17T21:21:55;56.2;;;29.3;;
41229;SDS011;26964;50.428;19.218;2022-10-17T21:26:55;49.7;;;26.9;;
41229;SDS011;26964;50.428;19.218;2022-10-17T21:31:55;46.3;;;26.3;;
41229;SDS011;26964;50.428;19.218;2022-10-17T21:36:55;44.9;;;23.8;;
41229;SDS011;26964;50.428;19.218;2022-10-17T21:41:55;52.5;;;29.8;;
41229;SDS011;26964;50.428;19.218;2022-10-17T21:46:55;49.4;;;29.3;;
41229;SDS011;26964;50.428;19.218;2022-10-17T21:51:55;42.1;;;25.5;;
41229;SDS011;26964;50.428;19.218;2022-10-17T21:56:55;41.6;;;26.5;;
41229;SDS011;26964;50.428;19.218;2022-10-17T22:01:55;44.7;;;26.5;;
41229;SDS011;26964;50.428;19.218;2022-10-17T22:06:55;38.7;;;24.2;;
41229;SDS011;26964;50.428;19.218;2022-10-17T22:11:55;34.0;;;20.7;;
41229;SDS011;26964;50.428;19.218;2022-10-17T22:16:55;35.8;;;22.5;;
41229;SDS011;26964;50.428;19.218;2022-10-17T22:21:55;35.3;;;23.8;;
41229;SDS011;26964;50.428;19.218;2022-10-17T22:26:55;38.9;;;22.5;;
41229;SDS011;26964;50.428;19.218;2022-10-17T22:31:55;37.5;;;23.9;;
41229;SDS011;26964;50.428;19.218;2022-10-17T22:36:56;44.8;;;24.4;;
41229;SDS011;26964;50.428;19.218;2022-10-17T22:41:55;52.1;;;28.2;;
41229;SDS011;26964;50.428;19.218;2022-10-17T22:46:55;57.5;;;31.8;;
41229;SDS011;26964;50.428;19.218;2022-10-17T22:51:56;56.0;;;31.4;;
41229;SDS011;26964;50.428;19.218;2022-10-17T22:56:56;48.2;;;27.7;;
41229;SDS011;26964;50.428;19.218;2022-10-17T23:01:55;54.4;;;31.3;;
41229;SDS011;26964;50.428;19.218;2022-10-17T23:06:55;49.6;;;28.3;;
41229;SDS011;26964;50.428;19.218;2022-10-17T23:11:55;50.7;;;31.1;;
41229;SDS011;26964;50.428;19.218;2022-10-17T23:16:55;43.3;;;29.1;;
41229;SDS011;26964;50.428;19.218;2022-10-17T23:21:55;46.4;;;28.9;;
41229;SDS011;26964;50.428;19.218;2022-10-17T23:26:55;41.2;;;26.1;;
41229;SDS011;26964;50.428;19.218;2022-10-17T23:31:55;66.6;;;38.4;;
41229;SDS011;26964;50.428;19.218;2022-10-17T23:36:55;44.4;;;27.8;;
41229;SDS011;26964;50.428;19.218;2022-10-17T23:41:55;52.3;;;30.6;;
41229;SDS011;26964;50.428;19.218;2022-10-17T23:46:55;43.7;;;26.1;;
41229;SDS011;26964;50.428;19.218;2022-10-17T23:51:55;44.6;;;26.0;;
41229;SDS011;26964;50.428;19.218;2022-10-17T23:56:55;40.3;;;25.6;;
